createdAt,value
2022-09-05T00:00:14.712Z,21.36
2022-09-05T00:03:04.040Z,21.40
2022-09-05T00:05:46.543Z,21.38
2022-09-05T00:08:52.856Z,21.35
2022-09-05T00:11:49.962Z,21.34
2022-09-05T00:15:14.310Z,21.33
2022-09-05T00:17:45.877Z,21.31
2022-09-05T00:24:36.940Z,21.32
2022-09-05T00:24:43.588Z,21.36
2022-09-05T00:27:09.698Z,21.40
2022-09-05T00:31:05.737Z,21.50
2022-09-05T00:32:43.924Z,21.55
2022-09-05T00:35:28.179Z,21.58
2022-09-05T00:37:57.654Z,21.58
2022-09-05T00:40:33.175Z,21.57
2022-09-05T00:43:13.878Z,21.52
2022-09-05T00:45:55.335Z,21.49
2022-09-05T00:48:51.042Z,21.49
2022-09-05T00:51:48.573Z,21.46
2022-09-05T00:54:47.201Z,21.42
2022-09-05T00:57:43.327Z,21.36
2022-09-05T01:00:17.812Z,21.32
2022-09-05T01:02:58.617Z,21.28
2022-09-05T01:06:15.983Z,21.28
2022-09-05T01:09:11.258Z,21.25
2022-09-05T01:11:51.971Z,21.19
2022-09-05T01:14:26.205Z,21.16
2022-09-05T01:17:22.052Z,21.15
2022-09-05T01:20:21.001Z,21.12
2022-09-05T01:23:08.541Z,21.09
2022-09-05T01:26:01.856Z,21.06
2022-09-05T01:29:16.218Z,21.01
2022-09-05T01:31:33.568Z,20.97
2022-09-05T01:34:31.444Z,20.90
2022-09-05T01:37:32.994Z,20.87
2022-09-05T01:40:25.062Z,20.84
2022-09-05T01:43:11.046Z,20.82
2022-09-05T01:46:20.573Z,20.78
2022-09-05T01:48:56.312Z,20.74
2022-09-05T01:51:46.805Z,20.79
2022-09-05T01:54:33.953Z,20.83
2022-09-05T01:57:08.436Z,20.89
2022-09-05T01:59:46.233Z,20.88
2022-09-05T02:02:36.317Z,20.89
2022-09-05T02:05:48.755Z,20.90
2022-09-05T02:08:35.558Z,20.88
2022-09-05T02:11:13.245Z,20.79
2022-09-05T02:13:50.503Z,20.60
2022-09-05T02:16:21.362Z,20.39
2022-09-05T02:19:04.494Z,20.31
2022-09-05T02:21:56.647Z,20.22
2022-09-05T02:24:37.015Z,20.16
2022-09-05T02:28:04.453Z,20.15
2022-09-05T02:30:47.544Z,20.16
2022-09-05T02:33:46.989Z,20.19
2022-09-05T02:36:35.286Z,20.26
2022-09-05T02:45:06.826Z,20.29
2022-09-05T02:45:12.504Z,20.28
2022-09-05T02:45:34.193Z,20.24
2022-09-05T02:48:15.725Z,20.23
2022-09-05T02:55:44.390Z,20.22
2022-09-05T02:57:34.406Z,20.14
2022-09-05T02:57:39.225Z,20.19
2022-09-05T03:00:19.698Z,20.16
2022-09-05T03:03:09.886Z,20.17
2022-09-05T03:05:40.874Z,20.01
2022-09-05T03:08:12.035Z,19.85
2022-09-05T03:10:54.458Z,19.81
2022-09-05T03:14:09.315Z,19.77
2022-09-05T03:16:55.582Z,19.73
2022-09-05T03:19:35.905Z,19.68
2022-09-05T03:23:04.128Z,19.63
2022-09-05T03:25:53.388Z,19.59
2022-09-05T03:29:15.492Z,19.57
2022-09-05T03:32:08.715Z,19.53
2022-09-05T03:34:48.320Z,19.53
2022-09-05T03:37:43.101Z,19.56
2022-09-05T03:40:25.763Z,19.59
2022-09-05T03:43:18.272Z,19.59
2022-09-05T03:46:14.966Z,19.63
2022-09-05T03:49:46.855Z,19.65
2022-09-05T03:57:05.648Z,19.42
2022-09-05T03:57:26.578Z,19.31
2022-09-05T03:58:16.805Z,19.20
2022-09-05T04:05:45.350Z,19.16
2022-09-05T04:08:10.455Z,19.19
2022-09-05T04:08:24.667Z,19.20
2022-09-05T04:10:36.812Z,19.24
2022-09-05T04:13:31.660Z,19.26
2022-09-05T04:16:12.571Z,19.28
2022-09-05T04:18:50.522Z,19.31
2022-09-05T04:21:29.927Z,19.31
2022-09-05T04:24:17.091Z,19.33
2022-09-05T04:27:03.697Z,19.35
2022-09-05T04:29:59.039Z,19.39
2022-09-05T04:32:57.818Z,19.42
2022-09-05T04:35:38.138Z,19.38
2022-09-05T04:38:06.330Z,19.35
2022-09-05T04:40:34.549Z,19.30
2022-09-05T04:43:35.709Z,19.25
2022-09-05T04:46:19.464Z,19.24
2022-09-05T04:49:17.154Z,19.23
2022-09-05T04:52:00.102Z,19.19
2022-09-05T04:54:43.802Z,19.18
2022-09-05T04:57:20.591Z,19.12
2022-09-05T05:06:04.779Z,19.10
2022-09-05T05:06:08.546Z,19.14
2022-09-05T05:06:09.427Z,19.19
2022-09-05T05:09:00.788Z,19.15
2022-09-05T05:17:47.918Z,19.21
2022-09-05T05:18:00.729Z,19.31
2022-09-05T05:18:42.295Z,19.28
2022-09-05T05:21:05.384Z,19.30
2022-09-05T05:23:50.880Z,19.32
2022-09-05T05:26:43.194Z,19.42
2022-09-05T05:29:23.088Z,19.53
2022-09-05T05:31:54.842Z,19.63
2022-09-05T05:34:46.334Z,19.75
2022-09-05T05:37:50.197Z,19.79
2022-09-05T05:40:18.756Z,19.87
2022-09-05T05:42:47.968Z,19.99
2022-09-05T05:45:26.798Z,20.09
2022-09-05T05:48:04.078Z,20.15
2022-09-05T05:50:52.885Z,20.28
2022-09-05T05:53:58.603Z,20.42
2022-09-05T05:56:48.312Z,20.54
2022-09-05T05:59:40.608Z,20.65
2022-09-05T06:02:46.173Z,20.86
2022-09-05T06:05:30.919Z,21.21
2022-09-05T06:13:03.597Z,21.43
2022-09-05T06:14:50.317Z,21.58
2022-09-05T06:14:59.174Z,21.69
2022-09-05T06:17:55.191Z,21.67
2022-09-05T06:22:07.805Z,21.79
2022-09-05T06:23:39.311Z,21.85
2022-09-05T06:26:36.043Z,21.90
2022-09-05T06:29:19.962Z,22.09
2022-09-05T06:32:09.258Z,22.62
2022-09-05T06:34:49.285Z,23.48
2022-09-05T06:37:53.160Z,23.94
2022-09-05T06:40:52.794Z,24.32
2022-09-05T06:43:45.874Z,24.81
2022-09-05T06:46:32.206Z,24.39
2022-09-05T06:49:28.958Z,24.41
2022-09-05T06:52:29.583Z,24.57
2022-09-05T06:55:15.867Z,24.85
2022-09-05T06:58:24.086Z,25.03
2022-09-05T07:01:01.338Z,25.62
2022-09-05T07:04:40.346Z,25.79
2022-09-05T07:07:06.866Z,25.86
2022-09-05T07:09:46.921Z,26.08
2022-09-05T07:12:27.813Z,26.37
2022-09-05T07:15:13.219Z,26.52
2022-09-05T07:18:11.084Z,26.64
2022-09-05T07:21:15.767Z,26.79
2022-09-05T07:24:10.977Z,27.19
2022-09-05T07:26:54.288Z,27.40
2022-09-05T07:29:27.751Z,27.46
2022-09-05T07:32:01.962Z,27.80
2022-09-05T07:34:35.632Z,28.11
2022-09-05T07:37:30.735Z,28.79
2022-09-05T07:40:24.689Z,29.20
2022-09-05T07:43:12.055Z,30.34
2022-09-05T07:45:55.374Z,31.16
2022-09-05T07:48:34.827Z,31.75
2022-09-05T07:55:26.230Z,31.71
2022-09-05T07:56:48.887Z,32.65
2022-09-05T07:57:34.961Z,32.81
2022-09-05T08:00:26.057Z,33.16
2022-09-05T08:03:14.815Z,32.70
2022-09-05T08:05:45.830Z,32.08
2022-09-05T08:08:19.767Z,30.45
2022-09-05T08:11:22.629Z,29.99
2022-09-05T08:14:38.403Z,29.27
2022-09-05T08:16:49.084Z,29.10
2022-09-05T08:19:50.063Z,29.59
2022-09-05T08:22:24.875Z,29.79
2022-09-05T08:25:15.243Z,29.66
2022-09-05T08:27:58.789Z,29.45
2022-09-05T08:30:30.205Z,29.44
2022-09-05T08:33:11.000Z,29.66
2022-09-05T08:36:14.377Z,29.62
2022-09-05T08:38:44.302Z,29.91
2022-09-05T08:41:49.414Z,30.39
2022-09-05T08:46:46.591Z,30.45
2022-09-05T08:48:19.330Z,30.54
2022-09-05T08:51:05.473Z,30.76
2022-09-05T08:53:46.377Z,31.02
2022-09-05T08:56:22.744Z,30.65
2022-09-05T08:59:32.013Z,30.35
2022-09-05T09:02:45.660Z,30.21
2022-09-05T09:05:21.062Z,30.20
2022-09-05T09:07:51.874Z,30.23
2022-09-05T09:11:00.502Z,30.36
2022-09-05T09:13:54.526Z,30.70
2022-09-05T09:16:30.235Z,30.74
2022-09-05T09:19:12.530Z,30.53
2022-09-05T09:21:53.272Z,30.07
2022-09-05T09:25:15.464Z,29.59
2022-09-05T09:28:48.823Z,29.62
2022-09-05T09:31:14.997Z,29.22
2022-09-05T09:34:08.828Z,29.24
2022-09-05T09:37:21.793Z,28.97
2022-09-05T09:40:33.312Z,28.53
2022-09-05T09:43:20.494Z,28.32
2022-09-05T09:46:27.399Z,28.18
2022-09-05T09:49:25.680Z,27.99
2022-09-05T09:52:24.609Z,27.98
2022-09-05T09:55:17.427Z,28.50
2022-09-05T09:58:14.079Z,28.96
2022-09-05T10:00:53.940Z,29.17
2022-09-05T10:10:32.719Z,29.48
2022-09-05T10:11:09.345Z,29.77
2022-09-05T10:11:18.796Z,29.92
2022-09-05T10:14:00.468Z,29.67
2022-09-05T10:17:06.167Z,29.30
2022-09-05T10:20:09.583Z,29.33
2022-09-05T10:23:14.656Z,29.49
2022-09-05T10:26:02.091Z,29.88
2022-09-05T10:28:51.925Z,30.13
2022-09-05T10:32:59.485Z,30.16
2022-09-05T10:35:11.675Z,29.92
2022-09-05T10:37:18.564Z,29.82
2022-09-05T10:39:52.480Z,29.91
2022-09-05T10:42:20.959Z,30.12
2022-09-05T10:44:54.800Z,29.68
2022-09-05T10:47:49.256Z,29.14
2022-09-05T10:50:44.560Z,29.16
2022-09-05T10:53:26.359Z,29.08
2022-09-05T10:56:05.542Z,29.07
2022-09-05T11:02:15.730Z,29.26
2022-09-05T11:02:30.287Z,29.38
2022-09-05T11:05:05.580Z,29.27
2022-09-05T11:07:48.683Z,29.32
2022-09-05T11:10:31.425Z,29.22
2022-09-05T11:13:47.059Z,29.22
2022-09-05T11:16:34.826Z,29.62
2022-09-05T11:19:25.836Z,29.86
2022-09-05T11:22:22.003Z,29.91
2022-09-05T11:25:02.018Z,29.63
2022-09-05T11:27:44.308Z,29.27
2022-09-05T11:30:28.424Z,29.15
2022-09-05T11:39:19.294Z,29.10
2022-09-05T11:39:46.886Z,29.63
2022-09-05T11:39:56.264Z,30.33
2022-09-05T11:42:46.061Z,30.04
2022-09-05T11:45:31.834Z,30.02
2022-09-05T11:48:13.136Z,30.41
2022-09-05T11:51:02.331Z,31.02
2022-09-05T11:53:46.580Z,31.30
2022-09-05T11:56:48.873Z,30.95
2022-09-05T12:00:32.154Z,30.65
2022-09-05T12:03:09.564Z,31.01
2022-09-05T12:05:59.334Z,31.56
2022-09-05T12:08:43.963Z,31.46
2022-09-05T12:11:34.234Z,31.64
2022-09-05T12:14:29.806Z,31.87
2022-09-05T12:17:10.019Z,32.17
2022-09-05T12:19:47.321Z,32.05
2022-09-05T12:22:34.539Z,31.86
2022-09-05T12:26:26.800Z,32.17
2022-09-05T12:29:27.224Z,32.53
2022-09-05T12:32:48.341Z,32.79
2022-09-05T12:36:04.325Z,32.97
2022-09-05T12:40:25.374Z,32.92
2022-09-05T12:41:34.145Z,32.81
2022-09-05T12:44:36.653Z,32.74
2022-09-05T12:46:09.601Z,32.68
2022-09-05T12:49:11.710Z,32.81
2022-09-05T12:51:57.454Z,32.66
2022-09-05T12:54:45.831Z,32.92
2022-09-05T13:02:57.164Z,33.32
2022-09-05T13:03:14.547Z,33.39
2022-09-05T13:03:28.457Z,33.32
2022-09-05T13:06:09.477Z,33.57
2022-09-05T13:08:59.163Z,33.54
2022-09-05T13:14:54.538Z,33.80
2022-09-05T13:15:02.507Z,33.39
2022-09-05T13:17:50.572Z,34.20
2022-09-05T13:20:34.108Z,34.31
2022-09-05T13:23:27.472Z,34.22
2022-09-05T13:25:58.878Z,34.44
2022-09-05T13:28:40.369Z,34.67
2022-09-05T13:36:20.820Z,34.79
2022-09-05T13:38:03.937Z,34.71
2022-09-05T13:38:29.359Z,34.63
2022-09-05T13:39:57.285Z,34.44
2022-09-05T13:42:31.884Z,34.17
2022-09-05T13:45:01.952Z,34.01
2022-09-05T13:47:52.917Z,33.92
2022-09-05T13:50:24.076Z,34.30
2022-09-05T13:53:19.659Z,33.94
2022-09-05T13:56:03.069Z,33.87
2022-09-05T13:58:57.655Z,33.88
2022-09-05T14:01:44.179Z,33.93
2022-09-05T14:07:59.068Z,33.27
2022-09-05T14:11:00.331Z,32.83
2022-09-05T14:14:15.847Z,32.41
2022-09-05T14:16:53.688Z,31.87
2022-09-05T14:19:43.573Z,31.84
2022-09-05T14:22:30.969Z,31.79
2022-09-05T14:25:00.393Z,31.63
2022-09-05T14:27:31.903Z,31.44
2022-09-05T14:30:54.120Z,31.28
2022-09-05T14:37:46.701Z,31.08
2022-09-05T14:37:52.921Z,30.86
2022-09-05T14:39:42.804Z,30.79
2022-09-05T14:42:23.983Z,30.60
2022-09-05T14:45:12.323Z,30.48
2022-09-05T14:47:58.375Z,30.31
2022-09-05T14:50:54.175Z,30.19
2022-09-05T14:57:35.640Z,29.80
2022-09-05T15:02:47.774Z,29.64
2022-09-05T15:02:53.440Z,29.58
2022-09-05T15:05:16.881Z,29.50
2022-09-05T15:07:50.634Z,29.54
2022-09-05T15:12:16.119Z,29.58
2022-09-05T15:13:25.915Z,29.54
2022-09-05T15:16:09.861Z,29.33
2022-09-05T15:18:43.324Z,29.31
2022-09-05T15:21:35.303Z,29.34
2022-09-05T15:24:27.908Z,29.35
2022-09-05T15:27:00.704Z,29.32
2022-09-05T15:29:31.781Z,29.21
2022-09-05T15:32:24.504Z,29.11
2022-09-05T15:34:59.089Z,28.96
2022-09-05T15:37:37.021Z,28.88
2022-09-05T15:40:21.824Z,28.87
2022-09-05T15:43:02.780Z,28.85
2022-09-05T15:45:37.283Z,28.77
2022-09-05T15:48:26.535Z,28.72
2022-09-05T15:51:17.721Z,28.69
2022-09-05T15:53:51.038Z,28.59
2022-09-05T15:56:21.303Z,28.52
2022-09-05T15:58:59.175Z,28.48
2022-09-05T16:01:58.583Z,28.44
2022-09-05T16:07:47.351Z,28.39
2022-09-05T16:10:42.219Z,28.47
2022-09-05T16:10:46.272Z,28.54
2022-09-05T16:13:19.159Z,28.55
2022-09-05T16:23:18.673Z,28.50
2022-09-05T16:23:27.597Z,28.30
2022-09-05T16:23:32.904Z,28.38
2022-09-05T16:25:00.852Z,28.21
2022-09-05T16:28:05.727Z,28.14
2022-09-05T16:30:37.221Z,28.12
2022-09-05T16:33:10.249Z,28.07
2022-09-05T16:35:41.975Z,28.11
2022-09-05T16:38:33.192Z,28.15
2022-09-05T16:41:24.567Z,28.16
2022-09-05T16:44:00.400Z,28.18
2022-09-05T16:47:22.032Z,28.16
2022-09-05T16:50:16.682Z,28.16
2022-09-05T16:52:46.330Z,28.10
2022-09-05T16:55:40.503Z,27.98
2022-09-05T16:58:34.794Z,27.87
2022-09-05T17:01:24.776Z,27.73
2022-09-05T17:04:10.873Z,27.65
2022-09-05T17:06:59.427Z,27.56
2022-09-05T17:09:38.687Z,27.48
2022-09-05T17:12:21.929Z,27.41
2022-09-05T17:14:57.826Z,27.31
2022-09-05T17:18:19.706Z,27.21
2022-09-05T17:20:51.151Z,27.12
2022-09-05T17:29:19.706Z,27.03
2022-09-05T17:29:24.041Z,26.94
2022-09-05T17:32:48.684Z,26.66
2022-09-05T17:35:36.189Z,26.55
2022-09-05T17:38:38.718Z,26.39
2022-09-05T17:41:31.863Z,26.27
2022-09-05T17:44:32.213Z,26.20
2022-09-05T17:47:15.224Z,26.09
2022-09-05T17:49:46.408Z,25.99
2022-09-05T17:52:18.230Z,25.84
2022-09-05T17:54:54.242Z,25.72
2022-09-05T17:57:28.307Z,25.58
2022-09-05T18:00:11.277Z,25.49
2022-09-05T18:02:56.442Z,25.33
2022-09-05T18:05:56.875Z,25.20
2022-09-05T18:08:46.418Z,25.10
2022-09-05T18:11:25.329Z,25.01
2022-09-05T18:14:25.215Z,24.93
2022-09-05T18:17:37.775Z,24.91
2022-09-05T18:19:44.077Z,24.87
2022-09-05T18:22:33.705Z,24.83
2022-09-05T18:25:30.572Z,24.81
2022-09-05T18:28:31.553Z,24.77
2022-09-05T18:31:40.805Z,24.74
2022-09-05T18:34:16.411Z,24.68
2022-09-05T18:36:53.951Z,24.58
2022-09-05T18:39:27.078Z,24.48
2022-09-05T18:42:26.023Z,24.40
2022-09-05T18:45:15.180Z,24.29
2022-09-05T18:47:59.239Z,24.20
2022-09-05T18:50:34.880Z,24.12
2022-09-05T18:53:09.021Z,24.05
2022-09-05T18:56:13.952Z,24.05
2022-09-05T18:59:09.964Z,24.05
2022-09-05T19:01:48.461Z,24.02
2022-09-05T19:04:46.325Z,23.93
2022-09-05T19:07:24.317Z,23.84
2022-09-05T19:10:35.948Z,23.77
2022-09-05T19:13:32.193Z,23.70
2022-09-05T19:16:42.214Z,23.65
2022-09-05T19:19:16.051Z,23.60
2022-09-05T19:22:02.445Z,23.57
2022-09-05T19:24:45.750Z,23.55
2022-09-05T19:30:53.729Z,23.53
2022-09-05T19:36:49.316Z,23.46
2022-09-05T19:37:03.123Z,23.37
2022-09-05T19:37:05.921Z,23.41
2022-09-05T19:47:10.970Z,23.30
2022-09-05T19:47:44.915Z,23.25
2022-09-05T19:50:26.654Z,23.18
2022-09-05T19:53:08.369Z,23.23
2022-09-05T19:55:38.579Z,23.23
2022-09-05T19:58:19.459Z,23.22
2022-09-05T20:01:02.250Z,23.21
2022-09-05T20:03:38.464Z,23.20
2022-09-05T20:06:38.654Z,23.16
2022-09-05T20:09:21.911Z,23.08
2022-09-05T20:11:54.728Z,23.06
2022-09-05T20:14:31.506Z,23.11
2022-09-05T20:17:21.990Z,23.12
2022-09-05T20:20:07.609Z,23.06
2022-09-05T20:22:49.265Z,23.03
2022-09-05T20:25:47.202Z,22.99
2022-09-05T20:28:22.020Z,23.06
2022-09-05T20:30:56.159Z,23.07
2022-09-05T20:33:31.692Z,23.03
2022-09-05T20:43:10.557Z,22.93
2022-09-05T20:43:17.839Z,23.20
2022-09-05T20:43:23.017Z,23.10
2022-09-05T20:44:50.596Z,23.22
2022-09-05T20:50:47.059Z,23.24
2022-09-05T20:54:14.876Z,23.31
2022-09-05T20:54:17.380Z,23.31
2022-09-05T20:56:23.634Z,23.33
2022-09-05T20:58:55.636Z,23.42
2022-09-05T21:01:25.370Z,23.44
2022-09-05T21:04:05.496Z,23.46
2022-09-05T21:06:36.107Z,23.48
2022-09-05T21:09:24.845Z,23.51
2022-09-05T21:11:59.878Z,23.57
2022-09-05T21:14:29.348Z,23.64
2022-09-05T21:17:15.040Z,23.65
2022-09-05T21:19:53.785Z,23.62
2022-09-05T21:22:25.083Z,23.69
2022-09-05T21:25:43.915Z,23.71
2022-09-05T21:28:36.290Z,23.67
2022-09-05T21:31:14.640Z,23.61
2022-09-05T21:33:46.262Z,23.50
2022-09-05T21:36:15.658Z,23.36
2022-09-05T21:38:44.345Z,23.26
2022-09-05T21:41:16.208Z,23.20
2022-09-05T21:47:35.794Z,23.10
2022-09-05T21:47:40.213Z,22.99
2022-09-05T21:49:34.850Z,22.88
2022-09-05T21:52:07.419Z,22.79
2022-09-05T21:59:17.093Z,22.77
2022-09-05T21:59:20.062Z,22.69
2022-09-05T22:00:20.965Z,22.67
2022-09-05T22:02:49.716Z,22.60
2022-09-05T22:05:20.208Z,22.55
2022-09-05T22:07:54.425Z,22.53
2022-09-05T22:10:51.862Z,22.50
2022-09-05T22:13:13.876Z,22.46
2022-09-05T22:15:42.219Z,22.43
2022-09-05T22:18:17.593Z,22.39
2022-09-05T22:21:33.373Z,22.39
2022-09-05T22:23:44.320Z,22.40
2022-09-05T22:26:14.184Z,22.44
2022-09-05T22:28:48.943Z,22.42
2022-09-05T22:31:18.796Z,22.36
2022-09-05T22:33:50.620Z,22.40
2022-09-05T22:36:19.763Z,22.37
2022-09-05T22:38:48.126Z,22.34
2022-09-05T22:41:16.398Z,22.31
2022-09-05T22:43:48.373Z,22.30
2022-09-05T22:46:16.843Z,22.26
2022-09-05T22:48:45.022Z,22.27
2022-09-05T22:51:13.434Z,22.19
2022-09-05T22:53:41.578Z,22.16
2022-09-05T22:56:10.868Z,22.13
2022-09-05T22:58:44.806Z,22.17
2022-09-05T23:01:13.156Z,22.13
2022-09-05T23:03:41.380Z,22.07
2022-09-05T23:06:10.459Z,22.00
2022-09-05T23:08:39.663Z,21.94
2022-09-05T23:11:13.662Z,21.90
2022-09-05T23:13:42.776Z,21.87
2022-09-05T23:16:11.560Z,21.84
2022-09-05T23:18:40.117Z,21.80
2022-09-05T23:21:11.197Z,21.80
2022-09-05T23:23:41.346Z,21.79
2022-09-05T23:26:11.948Z,21.74
2022-09-05T23:28:43.279Z,21.67
2022-09-05T23:31:12.709Z,21.63
2022-09-05T23:33:41.956Z,21.64
2022-09-05T23:36:13.763Z,21.63
2022-09-05T23:38:42.818Z,21.61
2022-09-05T23:41:13.503Z,21.54
2022-09-05T23:43:41.680Z,21.48
2022-09-05T23:46:10.309Z,21.46
2022-09-05T23:48:38.855Z,21.44
2022-09-05T23:51:09.345Z,21.39
2022-09-05T23:53:38.099Z,21.38
2022-09-05T23:56:08.569Z,21.36
2022-09-05T23:58:37.405Z,21.18
